• Join FlightAware (Why Join?)
  • Login
  • US Flag 
09:22AM EDT


 

Airport Tracker/Info


-or-


 

Live Flight TrackerFlight Track Log ✈ CPZ5718 ✈ 25-Aug-2013 ✈ KALB - KMSP

Flight Track Log - Related Links

Times and Time Zones

All times are in EDT time to prevent confusion due to time zone crossing. See the CPZ5718 flight status page for this flight to view local times or setup timezone preferences in your user account.

Time Position Orientation Groundspeed Altitude Reporting Facility
EDT Latitude Longitude Course Direction KTS MPH feet Rate Location/Type
08:43AM 42.7736 -73.8092 281° West 166 191 1,200  Level Boston Center
08:45AM 42.8397 -73.8586 331° Northwest 230 265 3,400 2,280 Climbing Boston Center
08:46AM 42.8414 -74.3814 283° West  Level FlightAware Approximate
08:46AM 42.9097 -73.9197 327° Northwest 261 300 7,000  Level Boston Center
08:47AM 42.8660 -74.5294 283° West  Level FlightAware Approximate
08:47AM 42.9717 -73.9694 330° Northwest 271 312 9,600  Level Boston Center
08:48AM 42.8995 -74.6675 281° West  Level FlightAware Approximate
08:48AM 43.0458 -74.0339 328° Northwest 292 336 11,500  Level Boston Center
08:49AM 43.1239 -74.1014 328° Northwest 322 371 13,700 2,220 Climbing Boston Center
08:50AM 43.2061 -74.1806 325° Northwest 354 407 16,000 2,160 Climbing Boston Center
08:51AM 43.2522 -74.2986 298° West 354 407 18,000 1,620 Climbing Boston Center
08:52AM 43.2833 -74.4336 288° West 360 414 19,400 1,680 Climbing Boston Center
08:53AM 43.3164 -74.5689 289° West 373 429 21,400 1,620 Climbing Boston Center
08:54AM 43.3511 -74.7100 289° West 379 436 22,700 1,440 Climbing Boston Center
08:55AM 43.3856 -74.8542 288° West 394 453 24,300 1,560 Climbing Boston Center
08:56AM 43.4219 -75.0014 289° West 399 459 25,800 1,380 Climbing Boston Center
08:57AM 43.4567 -75.1317 290° West 404 465 27,100 1,080 Climbing Boston Center
08:58AM 43.4925 -75.2878 288° West 414 476 28,000 840 Climbing Boston Center
08:59AM 43.5261 -75.4411 287° West 419 482 28,800 840 Climbing Boston Center
09:00AM 43.5614 -75.5978 287° West 424 488 29,700 900 Climbing Boston Center
09:01AM 43.5944 -75.7514 287° West 424 488 30,700 900 Climbing Boston Center
09:02AM 43.6317 -75.9086 288° West 424 488 31,500 840 Climbing Boston Center
09:03AM 43.6683 -76.0656 288° West 429 494 32,400 840 Climbing Boston Center
09:04AM 43.7028 -76.2258 287° West 429 494 33,300 780 Climbing Boston Center
09:05AM 43.7375 -76.3775 288° West 424 488 34,000 300 Climbing Boston Center
09:06AM 43.7717 -76.5319 287° West 424 488 34,000  Level Boston Center
09:07AM 43.7833 -76.6500 278° West 420 483 34,000  Level Toronto Center
09:08AM 43.8333 -76.8167 293° West 420 483 34,000  Level Toronto Center
09:09AM 43.8500 -76.9500 280° West 420 483 34,000  Level Toronto Center
09:10AM 43.8833 -77.1167 286° West 420 483 34,000  Level Toronto Center
09:11AM 43.9167 -77.2667 287° West 420 483 34,000  Level Toronto Center
09:12AM 43.9667 -77.4333 293° West 430 495 34,000  Level Toronto Center
09:13AM 43.9833 -77.6000 278° West 430 495 34,000  Level Toronto Center
09:14AM 44.0167 -77.7333 289° West 430 495 34,000  Level Toronto Center
09:15AM 44.0500 -77.9167 284° West 420 483 34,000  Level Toronto Center
09:16AM 44.0833 -78.0500 289° West 430 495 34,000  Level Toronto Center
09:17AM 44.1167 -78.2167 286° West 430 495 34,000  Level Toronto Center
09:18AM 44.1500 -78.3833 286° West 430 495 34,000  Level Toronto Center
09:19AM 44.1833 -78.5333 287° West 430 495 34,000  Level Toronto Center
09:20AM 44.2167 -78.7000 286° West 430 495 34,000  Level Toronto Center
09:21AM 44.2500 -78.8333 289° West 430 495 34,000  Level Toronto Center
09:22AM 44.2833 -79.0333 283° West 430 495 34,000  Level Toronto Center
09:23AM 44.3000 -79.1667 280° West 420 483 34,000  Level Toronto Center
09:24AM 44.3167 -79.3333 278° West 430 495 34,000  Level Toronto Center
09:25AM 44.3333 -79.5000 278° West 430 495 34,000  Level Toronto Center
09:26AM 44.3333 -79.6500 270° West 430 495 34,000  Level Toronto Center
09:27AM 44.3500 -79.8500 277° West 430 495 34,000  Level Toronto Center
09:28AM 44.3667 -80.0000 279° West 430 495 34,000  Level Toronto Center
09:29AM 44.3667 -80.1667 270° West 430 495 34,000  Level Toronto Center
09:30AM 44.3833 -80.3333 278° West 430 495 34,000  Level Toronto Center
09:31AM 44.3833 -80.5000 270° West 430 495 34,000  Level Toronto Center
09:32AM 44.4000 -80.6667 278° West 430 495 34,000  Level Toronto Center
09:33AM 44.4167 -80.8167 279° West 430 495 34,000  Level Toronto Center
09:34AM 44.4000 -81.0167 263° West 440 506 34,000  Level Toronto Center
09:35AM 44.4167 -81.1667 279° West 430 495 34,000  Level Toronto Center
09:36AM 44.4333 -81.3333 278° West 430 495 34,000  Level Toronto Center
09:37AM 44.4333 -81.5000 270° West 440 506 34,000  Level Toronto Center
09:38AM 44.4500 -81.6667 278° West 420 483 34,000  Level Toronto Center
09:39AM 44.4500 -81.8500 270° West 430 495 34,000  Level Toronto Center
09:40AM 44.4500 -82.0000 270° West 420 483 34,000  Level Toronto Center
09:41AM 44.4667 -82.1833 277° West 430 495 34,000  Level Toronto Center
09:42AM 44.4667 -82.3500 270° West 440 506 34,000  Level Toronto Center
09:42AM 44.4839 -82.4694 281° West 433 498 34,000  Level Minneapolis Center
09:43AM 44.4925 -82.6703 274° West 432 497 34,000  Level Minneapolis Center
09:44AM 44.4981 -82.8367 273° West 430 495 34,000  Level Minneapolis Center
09:46AM 44.5031 -83.0044 272° West 432 497 34,000  Level Minneapolis Center
09:47AM 44.5103 -83.1731 273° West 434 499 34,000  Level Minneapolis Center
09:48AM 44.5147 -83.3425 272° West 435 501 34,000  Level Minneapolis Center
09:49AM 44.5192 -83.4781 273° West 436 502 34,000  Level Minneapolis Center
09:50AM 44.5236 -83.6828 272° West 438 504 34,000 -360 Level Minneapolis Center
09:51AM 44.5278 -83.8522 272° West 438 504 33,300 -960 Descending Minneapolis Center
09:52AM 44.5317 -84.0186 272° West 432 497 32,100 -660 Descending Minneapolis Center
09:53AM 44.5378 -84.2197 273° West 432 497 32,000 -60 Descending Minneapolis Center
09:54AM 44.5425 -84.3908 272° West 437 503 32,000  Level Minneapolis Center
09:55AM 44.5453 -84.5622 271° West 440 506 32,000  Level Minneapolis Center
09:56AM 44.5478 -84.7322 271° West 438 504 32,000  Level Minneapolis Center
09:57AM 44.5503 -84.9003 271° West 435 501 32,000  Level Minneapolis Center
09:58AM 44.5533 -85.0692 272° West 434 499 32,000  Level Minneapolis Center
09:59AM 44.5544 -85.2383 271° West 434 499 32,000  Level Minneapolis Center
10:00AM 44.5572 -85.4081 271° West 435 501 32,000  Level Minneapolis Center
10:01AM 44.5594 -85.5775 271° West 434 499 32,000  Level Minneapolis Center
10:02AM 44.5606 -85.7453 271° West 431 496 32,000  Level Minneapolis Center
10:03AM 44.5611 -85.9481 270° West 430 495 32,000  Level Minneapolis Center
10:04AM 44.5628 -86.1197 271° West 433 498 32,000  Level Minneapolis Center
10:05AM 44.5633 -86.2892 270° West 432 497 32,000  Level Minneapolis Center
10:06AM 44.6156 -86.4356 297° West 424 488 32,000  Level Minneapolis Center
10:07AM 44.7058 -86.5489 318° Northwest 436 502 32,000  Level Minneapolis Center
10:08AM 44.7936 -86.6625 317° Northwest 434 499 32,000  Level Minneapolis Center
10:09AM 44.8839 -86.7786 318° Northwest 429 494 32,000  Level Minneapolis Center
10:10AM 44.9717 -86.8914 318° Northwest 428 493 32,000  Level Minneapolis Center
10:11AM 45.0622 -87.0022 319° Northwest 430 495 32,000  Level Minneapolis Center
10:12AM 45.1139 -87.1472 297° West 421 484 32,000  Level Minneapolis Center
10:13AM 45.1092 -87.3119 268° West 421 484 32,000  Level Minneapolis Center
10:14AM 45.1022 -87.5092 267° West 422 486 32,000  Level Minneapolis Center
10:15AM 45.0964 -87.6753 267° West 423 487 32,000  Level Minneapolis Center
10:16AM 45.0903 -87.8394 267° West 421 484 32,000  Level Minneapolis Center
10:17AM 45.0844 -88.0039 267° West 420 483 32,000  Level Minneapolis Center
10:18AM 45.0786 -88.1692 267° West 422 486 32,000  Level Minneapolis Center
10:19AM 45.0722 -88.3347 267° West 423 487 32,000  Level Minneapolis Center
10:20AM 45.0644 -88.4997 266° West 423 487 32,000  Level Minneapolis Center
10:21AM 45.0572 -88.6800 267° West 421 484 32,000  Level Minneapolis Center
10:22AM 45.0492 -88.8464 266° West 419 482 32,000  Level Minneapolis Center
10:23AM 45.0431 -88.9836 266° West 419 482 32,000  Level Minneapolis Center
10:24AM 45.0342 -89.1744 266° West 419 482 32,000  Level Minneapolis Center
10:25AM 45.0242 -89.3656 266° West 418 481 32,000  Level Minneapolis Center
10:26AM 45.0158 -89.5308 266° West 421 484 32,000  Level Minneapolis Center
10:28AM 45.0081 -89.6950 266° West 420 483 32,000  Level Minneapolis Center
10:29AM 44.9975 -89.8658 265° West 418 481 32,000  Level Minneapolis Center
10:30AM 44.9886 -90.0297 266° West 418 481 32,000  Level Minneapolis Center
10:31AM 44.9872 -90.1925 269° West 415 478 32,000  Level Minneapolis Center
10:32AM 44.9942 -90.3597 273° West 422 486 32,000  Level Minneapolis Center
10:33AM 45.0006 -90.5242 273° West 420 483 32,000  Level Minneapolis Center
10:34AM 45.0047 -90.6553 273° West 418 481 32,000 -1,020 Level Minneapolis Center
10:35AM 45.0122 -90.8839 273° West 415 478 30,000 -1,980 Descending Minneapolis Center
10:36AM 45.0147 -91.0278 271° West 416 479 28,000 -2,220 Descending Minneapolis Center
10:37AM 45.0219 -91.2158 273° West 423 487 25,500 -2,280 Descending Minneapolis Center
10:38AM 45.0261 -91.3825 272° West 408 470 23,300 -2,100 Descending Minneapolis Center
10:39AM 45.0292 -91.5325 272° West 392 451 21,200 -2,040 Descending Minneapolis Center
10:40AM 45.0328 -91.6806 272° West 382 440 19,200 -1,920 Descending Minneapolis Center
10:41AM 45.0392 -91.8253 274° West 374 430 17,300 -1,860 Descending Minneapolis Center
10:42AM 45.0431 -91.9617 272° West 352 405 15,500 -1,800 Descending Minneapolis Center
10:43AM 45.0442 -92.0922 271° West 335 386 13,700 -1,740 Descending Minneapolis Center
10:44AM 45.0483 -92.2467 272° West 330 380 11,600 -1,200 Descending Minneapolis Center
10:45AM 45.0128 -92.3881 250° West 322 371 11,000 -960 Descending Minneapolis Center
10:46AM 44.9719 -92.4814 238° Southwest 281 323 9,700 -1,500 Descending Minneapolis Center
10:47AM 44.9322 -92.5706 238° Southwest 274 315 8,000 -1,320 Descending Minneapolis Center
10:48AM 44.9014 -92.6403 238° Southwest 265 305 7,000 -540 Descending Minneapolis Center
10:49AM 44.8558 -92.7422 238° Southwest 257 296 6,900 -720 Descending Minneapolis Center
10:50AM 44.8217 -92.8189 238° Southwest 235 270 5,500 -1,560 Descending Minneapolis Center
10:51AM 44.8147 -92.9186 264° West 218 251 3,800 -1,260 Descending Minneapolis Center
10:52AM 44.8200 -92.9894 276° West 188 216 3,000 -420 Descending Minneapolis Center
10:53AM 44.8258 -93.0461 278° West 152 175 3,000 -300 Level Minneapolis Center
10:55AM 44.8364 -93.0894 289° West 151 174 2,500 -720 Descending Minneapolis Center
10:56AM 44.8619 -93.1494 301° West 150 173 1,600 -900 Descending Minneapolis Center